createdAt,value
2018-12-03T00:03:32.111Z,94846.00
2018-12-03T00:09:01.858Z,94839.00
2018-12-03T00:14:31.389Z,94857.00
2018-12-03T00:20:01.110Z,94853.00
2018-12-03T00:25:30.854Z,94853.00
2018-12-03T00:31:00.917Z,94865.00
2018-12-03T00:36:30.623Z,94859.00
2018-12-03T00:42:00.350Z,94852.00
2018-12-03T00:47:30.043Z,94859.00
2018-12-03T00:52:59.644Z,94854.00
2018-12-03T00:58:30.342Z,94856.00
2018-12-03T01:04:00.027Z,94860.00
2018-12-03T01:09:32.281Z,94844.00
2018-12-03T01:15:02.261Z,94867.00
2018-12-03T01:20:31.774Z,94866.00
2018-12-03T01:26:02.291Z,94865.00
2018-12-03T01:31:32.544Z,94876.00
2018-12-03T01:37:02.092Z,94865.00
2018-12-03T01:42:31.778Z,94860.00
2018-12-03T01:48:01.313Z,94853.00
2018-12-03T01:53:31.106Z,94853.00
2018-12-03T01:59:00.699Z,94856.00
2018-12-03T02:04:30.256Z,94852.00
2018-12-03T02:10:00.121Z,94850.00
2018-12-03T02:15:30.245Z,94849.00
2018-12-03T02:21:00.059Z,94853.00
2018-12-03T02:26:29.638Z,94835.00
2018-12-03T02:31:59.586Z,94839.00
2018-12-03T02:37:29.277Z,94841.00
2018-12-03T02:42:58.799Z,94837.00
2018-12-03T02:48:28.614Z,94843.00
2018-12-03T02:53:58.104Z,94851.00
2018-12-03T02:59:28.101Z,94844.00
2018-12-03T03:04:58.292Z,94860.00
2018-12-03T03:10:27.779Z,94849.00
2018-12-03T03:15:57.507Z,94848.00
2018-12-03T03:21:26.851Z,94849.00
2018-12-03T03:26:56.556Z,94863.00
2018-12-03T03:32:26.464Z,94856.00
2018-12-03T03:37:56.383Z,94861.00
2018-12-03T03:43:26.422Z,94855.00
2018-12-03T03:48:56.324Z,94863.00
2018-12-03T03:54:25.804Z,94868.00
2018-12-03T03:59:55.267Z,94865.00
2018-12-03T04:05:24.575Z,94866.00
2018-12-03T04:10:54.138Z,94866.00
2018-12-03T04:16:23.496Z,94862.00
2018-12-03T04:21:52.970Z,94851.00
2018-12-03T04:27:22.262Z,94854.00
2018-12-03T04:32:52.956Z,94854.00
2018-12-03T04:38:22.464Z,94872.00
2018-12-03T04:43:52.752Z,94871.00
2018-12-03T04:49:22.976Z,94881.00
2018-12-03T04:54:52.433Z,94864.00
2018-12-03T05:00:22.488Z,94863.00
2018-12-03T05:05:51.963Z,94854.00
2018-12-03T05:11:21.575Z,94861.00
2018-12-03T05:16:51.118Z,94860.00
2018-12-03T05:22:20.480Z,94844.00
2018-12-03T05:27:50.920Z,94854.00
2018-12-03T05:33:20.324Z,94850.00
2018-12-03T05:38:50.036Z,94860.00
2018-12-03T05:44:19.710Z,94871.00
2018-12-03T05:49:49.175Z,94869.00
2018-12-03T05:55:18.698Z,94862.00
2018-12-03T06:00:48.342Z,94865.00
2018-12-03T06:06:17.909Z,94855.00
2018-12-03T06:11:47.449Z,94854.00
2018-12-03T06:17:16.786Z,94863.00
2018-12-03T06:22:46.763Z,94869.00
2018-12-03T06:28:16.600Z,94874.00
2018-12-03T06:33:46.084Z,94872.00
2018-12-03T06:39:15.540Z,94878.00
2018-12-03T06:44:45.029Z,94883.00
2018-12-03T06:50:14.718Z,94897.00
2018-12-03T06:55:44.152Z,94891.00
2018-12-03T07:01:13.912Z,94895.00
2018-12-03T07:06:43.282Z,94903.00
2018-12-03T07:12:12.861Z,94913.00
2018-12-03T07:17:42.317Z,94913.00
2018-12-03T07:23:12.169Z,94922.00
2018-12-03T07:28:41.666Z,94913.00
2018-12-03T07:34:11.056Z,94911.00
2018-12-03T07:39:40.619Z,94921.00
2018-12-03T07:45:19.787Z,94920.00
2018-12-03T07:50:49.263Z,94918.00
2018-12-03T07:56:18.593Z,94930.00
2018-12-03T08:01:48.107Z,94937.00
2018-12-03T08:07:17.598Z,94950.00
2018-12-03T08:12:48.723Z,94941.00
2018-12-03T08:18:20.396Z,94938.00
2018-12-03T08:24:03.148Z,94942.00
2018-12-03T08:29:32.820Z,94942.00
2018-12-03T08:35:02.572Z,94966.00
2018-12-03T08:40:32.159Z,94948.00
2018-12-03T08:46:03.548Z,94937.00
2018-12-03T08:51:33.581Z,94958.00
2018-12-03T08:57:03.562Z,94961.00
2018-12-03T09:02:33.169Z,94949.00
2018-12-03T09:08:02.986Z,94960.00
2018-12-03T09:13:32.566Z,94972.00
2018-12-03T09:19:02.250Z,94951.00
2018-12-03T09:24:31.843Z,94967.00
2018-12-03T09:30:01.752Z,94971.00
2018-12-03T09:35:31.510Z,94969.00
2018-12-03T09:41:01.966Z,94964.00
2018-12-03T09:46:31.554Z,94966.00
2018-12-03T09:52:01.118Z,94963.00
2018-12-03T09:57:30.917Z,94953.00
2018-12-03T10:03:03.048Z,94949.00
2018-12-03T10:08:33.014Z,94937.00
2018-12-03T10:14:02.659Z,94938.00
2018-12-03T10:19:32.391Z,94927.00
2018-12-03T10:25:14.767Z,94930.00
2018-12-03T10:30:44.742Z,94916.00
2018-12-03T10:36:14.209Z,94917.00
2018-12-03T10:41:43.649Z,94901.00
2018-12-03T10:47:13.217Z,94908.00
2018-12-03T10:52:42.650Z,94928.00
2018-12-03T10:58:14.895Z,94900.00
2018-12-03T11:03:49.753Z,94893.00
2018-12-03T11:09:19.254Z,94897.00
2018-12-03T11:14:48.708Z,94891.00
2018-12-03T11:20:18.285Z,94897.00
2018-12-03T11:25:47.747Z,94880.00
2018-12-03T11:31:25.449Z,94866.00
2018-12-03T11:37:03.037Z,94858.00
2018-12-03T11:42:36.349Z,94845.00
2018-12-03T11:48:06.334Z,94834.00
2018-12-03T11:53:39.473Z,94822.00
2018-12-03T11:59:09.213Z,94810.00
2018-12-03T12:04:38.669Z,94799.00
2018-12-03T12:10:10.074Z,94806.00
2018-12-03T12:15:39.500Z,94795.00
2018-12-03T12:21:09.075Z,94785.00
2018-12-03T12:26:38.619Z,94779.00
2018-12-03T12:32:08.235Z,94759.00
2018-12-03T12:37:38.875Z,94752.00
2018-12-03T12:43:09.367Z,94759.00
2018-12-03T12:48:38.812Z,94749.00
2018-12-03T12:54:08.630Z,94749.00
2018-12-03T12:59:38.265Z,94746.00
2018-12-03T13:05:08.535Z,94722.00
2018-12-03T13:10:38.165Z,94716.00
2018-12-03T13:16:07.682Z,94715.00
2018-12-03T13:21:37.367Z,94712.00
2018-12-03T13:27:08.325Z,94735.00
2018-12-03T13:32:37.742Z,94726.00
2018-12-03T13:38:07.433Z,94724.00
2018-12-03T13:43:36.903Z,94715.00
2018-12-03T13:49:07.767Z,94717.00
2018-12-03T13:54:37.309Z,94724.00
2018-12-03T14:00:13.263Z,94721.00
2018-12-03T14:06:14.633Z,94719.00
2018-12-03T14:12:14.044Z,94717.00
2018-12-03T14:18:14.680Z,94726.00
2018-12-03T14:23:45.184Z,94747.00
2018-12-03T14:29:14.689Z,94753.00
2018-12-03T14:34:44.274Z,94751.00
2018-12-03T14:40:13.668Z,94752.00
2018-12-03T14:45:43.235Z,94754.00
2018-12-03T14:51:12.676Z,94746.00
2018-12-03T14:56:42.447Z,94749.00
2018-12-03T15:02:11.923Z,94741.00
2018-12-03T15:07:41.537Z,94747.00
2018-12-03T15:13:10.944Z,94755.00
2018-12-03T15:18:40.487Z,94757.00
2018-12-03T15:24:13.428Z,94756.00
2018-12-03T15:29:39.618Z,94750.00
2018-12-03T15:35:10.875Z,94765.00
2018-12-03T15:40:40.204Z,94775.00
2018-12-03T15:46:10.523Z,94751.00
2018-12-03T15:51:39.994Z,94755.00
2018-12-03T15:57:09.423Z,94755.00
2018-12-03T16:02:39.096Z,94746.00
2018-12-03T16:08:08.498Z,94752.00
2018-12-03T16:13:38.155Z,94746.00
2018-12-03T16:19:07.810Z,94748.00
2018-12-03T16:24:38.658Z,94738.00
2018-12-03T16:30:12.534Z,94732.00
2018-12-03T16:35:42.226Z,94742.00
2018-12-03T16:41:11.831Z,94748.00
2018-12-03T16:46:41.750Z,94749.00
2018-12-03T16:52:11.598Z,94751.00
2018-12-03T16:57:41.255Z,94745.00
2018-12-03T17:03:10.603Z,94738.00
2018-12-03T17:08:39.926Z,94722.00
2018-12-03T17:14:09.543Z,94730.00
2018-12-03T17:19:39.072Z,94732.00
2018-12-03T17:25:19.439Z,94729.00
2018-12-03T17:30:49.063Z,94729.00
2018-12-03T17:36:18.751Z,94720.00
2018-12-03T17:42:28.288Z,94717.00
2018-12-03T17:47:56.527Z,94706.00
2018-12-03T17:53:24.952Z,94702.00
2018-12-03T17:59:20.917Z,94706.00
2018-12-03T18:04:51.222Z,94713.00
2018-12-03T18:10:19.445Z,94702.00
2018-12-03T18:15:47.653Z,94699.00
2018-12-03T18:21:15.943Z,94688.00
2018-12-03T18:26:44.209Z,94666.00
2018-12-03T18:32:14.666Z,94653.00
2018-12-03T18:37:42.736Z,94645.00
2018-12-03T18:43:10.803Z,94646.00
2018-12-03T18:48:38.871Z,94639.00
2018-12-03T18:54:06.939Z,94642.00
2018-12-03T18:59:36.026Z,94631.00
2018-12-03T19:05:05.071Z,94631.00
2018-12-03T19:10:33.167Z,94621.00
2018-12-03T19:16:01.272Z,94625.00
2018-12-03T19:21:29.358Z,94617.00
2018-12-03T19:26:57.442Z,94609.00
2018-12-03T19:32:25.602Z,94608.00
2018-12-03T19:37:53.684Z,94603.00
2018-12-03T19:43:21.750Z,94594.00
2018-12-03T19:48:49.833Z,94593.00
2018-12-03T19:54:18.008Z,94597.00
2018-12-03T19:59:46.082Z,94600.00
2018-12-03T20:05:17.147Z,94589.00
2018-12-03T20:10:45.318Z,94629.00
2018-12-03T20:16:13.381Z,94623.00
2018-12-03T20:21:41.507Z,94641.00
2018-12-03T20:27:09.693Z,94640.00
2018-12-03T20:32:38.545Z,94661.00
2018-12-03T20:38:06.733Z,94710.00
2018-12-03T20:43:34.866Z,94682.00
2018-12-03T20:49:07.874Z,94679.00
2018-12-03T20:54:35.966Z,94690.00
2018-12-03T21:00:06.130Z,94700.00
2018-12-03T21:05:35.249Z,94702.00
2018-12-03T21:11:03.315Z,94730.00
2018-12-03T21:16:31.381Z,94746.00
2018-12-03T21:22:00.491Z,94742.00
2018-12-03T21:27:28.654Z,94773.00
2018-12-03T21:32:56.732Z,94774.00
2018-12-03T21:38:24.820Z,94795.00
2018-12-03T21:43:52.878Z,94707.00
2018-12-03T21:49:20.971Z,94812.00
2018-12-03T21:54:49.191Z,94808.00
2018-12-03T22:00:18.106Z,94839.00
2018-12-03T22:05:46.175Z,94852.00
2018-12-03T22:11:14.371Z,94868.00
2018-12-03T22:16:42.439Z,94870.00
2018-12-03T22:22:11.526Z,94893.00
2018-12-03T22:27:43.867Z,94873.00
2018-12-03T22:33:12.302Z,94900.00
2018-12-03T22:38:40.413Z,94905.00
2018-12-03T22:44:08.923Z,94903.00
2018-12-03T22:49:37.223Z,94918.00
2018-12-03T22:55:05.681Z,94925.00
2018-12-03T23:00:36.979Z,94928.00
2018-12-03T23:06:05.192Z,94948.00
2018-12-03T23:11:33.333Z,94934.00
2018-12-03T23:17:01.497Z,94940.00
2018-12-03T23:22:29.682Z,94911.00
2018-12-03T23:27:57.746Z,94946.00
2018-12-03T23:33:25.809Z,94965.00
2018-12-03T23:38:53.880Z,94977.00
2018-12-03T23:44:21.962Z,94982.00
2018-12-03T23:49:50.031Z,95002.00
2018-12-03T23:55:18.093Z,95017.00
